Vayland, South Dakota
Current Conditions -  °F | °C
As of 12:55 AM on Sunday 23 Nov 2014 (Local Time) from KHON Reporting Station
Overcast Overcast  
Wind Chill: 37°   Ceiling: 10000
Heat Index: 37°   Visibility: 10mi
Dew Point: 32°   Wind: 3mph
Humidity: 82%   Direction: 160°SSE
Pressure: 29.42"   Gusts: NA
Location:  44.3714°N, 98.681°W
Report Text: KHON 230655Z AUTO 16003KT 10SM OVC100 03/00 A2942 RMK AO2 SLP972 T00280000
Loading
Personal Weather Stations






























Interactive Weather Map New forecast layout! Learn more

10-Day Weather Forecast

Advertisements
Track Severe Weather on mobile